createdAt,value
2017-09-26T00:00:14.649Z,15.87
2017-09-26T00:02:49.194Z,14.80
2017-09-26T00:05:23.787Z,15.30
2017-09-26T00:07:58.347Z,13.10
2017-09-26T00:10:32.846Z,13.60
2017-09-26T00:13:07.433Z,12.70
2017-09-26T00:15:42.032Z,14.47
2017-09-26T00:18:17.311Z,13.70
2017-09-26T00:20:51.767Z,13.90
2017-09-26T00:23:26.315Z,14.73
2017-09-26T00:26:00.938Z,14.77
2017-09-26T00:28:35.626Z,12.90
2017-09-26T00:31:10.131Z,14.10
2017-09-26T00:33:44.393Z,13.03
2017-09-26T00:36:18.779Z,14.53
2017-09-26T00:38:53.384Z,14.03
2017-09-26T00:41:27.638Z,12.60
2017-09-26T00:44:02.286Z,14.30
2017-09-26T00:46:36.904Z,15.20
2017-09-26T00:49:12.230Z,13.37
2017-09-26T00:51:46.781Z,14.00
2017-09-26T00:54:21.386Z,15.93
2017-09-26T00:56:55.935Z,14.03
2017-09-26T00:59:30.242Z,14.40
2017-09-26T01:02:04.590Z,13.77
2017-09-26T01:04:57.644Z,14.40
2017-09-26T01:07:35.631Z,15.60
2017-09-26T01:10:14.902Z,15.10
2017-09-26T01:12:49.540Z,14.77
2017-09-26T01:15:24.070Z,14.13
2017-09-26T01:17:58.707Z,14.10
2017-09-26T01:20:32.441Z,15.20
2017-09-26T01:23:06.782Z,13.30
2017-09-26T01:25:41.361Z,13.90
2017-09-26T01:28:16.770Z,13.33
2017-09-26T01:30:51.358Z,13.20
2017-09-26T01:33:26.833Z,14.50
2017-09-26T01:36:01.512Z,14.00
2017-09-26T01:38:36.089Z,13.43
2017-09-26T01:41:21.857Z,14.80
2017-09-26T01:43:56.446Z,15.50
2017-09-26T01:46:31.058Z,14.87
2017-09-26T01:49:05.533Z,14.97
2017-09-26T01:51:39.921Z,14.83
2017-09-26T01:54:14.377Z,13.10
2017-09-26T01:56:56.253Z,14.70
2017-09-26T01:59:34.062Z,14.27
2017-09-26T02:02:08.593Z,12.47
2017-09-26T02:04:43.258Z,14.70
2017-09-26T02:07:17.832Z,14.90
2017-09-26T02:09:52.414Z,14.63
2017-09-26T02:12:26.794Z,13.13
2017-09-26T02:17:42.198Z,15.67
2017-09-26T02:20:16.809Z,13.10
2017-09-26T02:22:51.309Z,15.10
2017-09-26T02:25:25.979Z,14.40
2017-09-26T02:28:00.422Z,14.60
2017-09-26T02:30:34.793Z,13.10
2017-09-26T02:33:09.458Z,12.67
2017-09-26T02:35:43.958Z,13.60
2017-09-26T02:38:18.442Z,14.30
2017-09-26T02:40:53.028Z,14.70
2017-09-26T02:43:27.498Z,14.07
2017-09-26T02:46:02.010Z,13.40
2017-09-26T02:48:36.739Z,14.60
2017-09-26T02:51:11.491Z,14.33
2017-09-26T02:53:45.963Z,13.83
2017-09-26T02:56:20.582Z,12.50
2017-09-26T02:58:55.249Z,15.10
2017-09-26T03:01:29.992Z,14.70
2017-09-26T03:04:04.526Z,16.17
2017-09-26T03:06:39.163Z,14.23
2017-09-26T03:09:13.607Z,15.23
2017-09-26T03:11:48.120Z,16.60
2017-09-26T03:14:22.602Z,14.70
2017-09-26T03:16:57.182Z,14.63
2017-09-26T03:19:31.635Z,15.17
2017-09-26T03:22:06.147Z,13.30
2017-09-26T03:24:40.863Z,14.07
2017-09-26T03:27:15.384Z,15.67
2017-09-26T03:29:50.047Z,16.03
2017-09-26T03:32:24.600Z,15.90
2017-09-26T03:34:58.986Z,15.03
2017-09-26T03:37:33.430Z,16.27
2017-09-26T03:40:14.706Z,15.93
2017-09-26T03:42:49.248Z,16.97
2017-09-26T03:45:23.567Z,18.30
2017-09-26T03:47:58.036Z,17.47
2017-09-26T03:50:32.490Z,16.07
2017-09-26T03:53:06.766Z,15.10
2017-09-26T03:55:41.300Z,16.73
2017-09-26T03:58:15.591Z,21.07
2017-09-26T04:00:50.130Z,22.63
2017-09-26T04:03:24.631Z,17.67
2017-09-26T04:05:58.958Z,18.30
2017-09-26T04:08:33.278Z,18.87
2017-09-26T04:11:08.005Z,15.50
2017-09-26T04:13:42.637Z,18.23
2017-09-26T04:16:17.131Z,17.17
2017-09-26T04:18:51.470Z,17.43
2017-09-26T04:21:26.073Z,17.27
2017-09-26T04:24:00.606Z,17.70
2017-09-26T04:26:35.362Z,16.77
2017-09-26T04:29:10.018Z,18.70
2017-09-26T04:31:44.702Z,19.53
2017-09-26T04:34:19.322Z,17.17
2017-09-26T04:36:53.935Z,18.80
2017-09-26T04:39:28.580Z,18.83
2017-09-26T04:42:02.905Z,19.07
2017-09-26T04:44:37.302Z,21.43
2017-09-26T04:47:11.842Z,18.73
2017-09-26T04:49:46.562Z,19.30
2017-09-26T04:52:21.157Z,20.53
2017-09-26T04:54:55.594Z,18.87
2017-09-26T04:57:30.287Z,17.47
2017-09-26T05:00:14.382Z,18.60
2017-09-26T05:02:48.958Z,18.20
2017-09-26T05:05:23.322Z,20.03
2017-09-26T05:07:57.838Z,20.30
2017-09-26T05:10:32.262Z,18.67
2017-09-26T05:13:06.730Z,18.30
2017-09-26T05:15:41.434Z,18.50
2017-09-26T05:18:15.925Z,16.80
2017-09-26T05:20:50.499Z,19.40
2017-09-26T05:23:25.166Z,17.93
2017-09-26T05:25:59.730Z,14.97
2017-09-26T05:28:34.420Z,17.53
2017-09-26T05:31:08.942Z,17.27
2017-09-26T05:33:43.490Z,17.80
2017-09-26T05:36:17.870Z,16.50
2017-09-26T05:38:52.507Z,17.30
2017-09-26T05:41:27.039Z,15.57
2017-09-26T05:44:01.551Z,17.40
2017-09-26T05:46:36.306Z,15.30
2017-09-26T05:49:10.859Z,15.10
2017-09-26T05:51:45.501Z,15.63
2017-09-26T05:54:20.911Z,15.27
2017-09-26T05:56:55.377Z,15.30
2017-09-26T05:59:30.581Z,16.10
2017-09-26T06:02:05.086Z,16.23
2017-09-26T06:04:39.734Z,15.80
2017-09-26T06:07:14.237Z,14.90
2017-09-26T06:09:48.751Z,14.50
2017-09-26T06:12:23.328Z,13.90
2017-09-26T06:14:57.826Z,16.37
2017-09-26T06:17:32.338Z,15.67
2017-09-26T06:20:15.118Z,15.80
2017-09-26T06:22:49.559Z,14.70
2017-09-26T06:25:24.067Z,15.63
2017-09-26T06:27:58.507Z,13.80
2017-09-26T06:30:33.127Z,14.27
2017-09-26T06:33:07.586Z,13.70
2017-09-26T06:35:42.219Z,13.33
2017-09-26T06:38:16.870Z,13.37
2017-09-26T06:40:51.430Z,14.97
2017-09-26T06:43:26.078Z,14.43
2017-09-26T06:46:00.719Z,14.63
2017-09-26T06:48:35.319Z,14.13
2017-09-26T06:51:09.948Z,14.40
2017-09-26T06:53:44.418Z,14.30
2017-09-26T06:56:19.634Z,12.73
2017-09-26T06:58:54.232Z,12.47
2017-09-26T07:01:29.599Z,12.20
2017-09-26T07:04:04.161Z,13.30
2017-09-26T07:06:39.732Z,13.93
2017-09-26T07:09:14.197Z,12.20
2017-09-26T07:11:48.745Z,12.70
2017-09-26T07:14:23.226Z,11.67
2017-09-26T07:16:57.771Z,14.77
2017-09-26T07:19:32.523Z,12.27
2017-09-26T07:22:07.094Z,14.20
2017-09-26T07:24:41.867Z,13.23
2017-09-26T07:27:16.528Z,12.00
2017-09-26T07:29:51.034Z,12.80
2017-09-26T07:32:26.335Z,11.20
2017-09-26T07:35:00.946Z,11.90
2017-09-26T07:37:35.489Z,14.40
2017-09-26T07:40:16.425Z,13.83
2017-09-26T07:42:50.948Z,13.00
2017-09-26T07:45:25.326Z,13.30
2017-09-26T07:47:59.630Z,13.90
2017-09-26T07:50:33.696Z,12.77
2017-09-26T07:53:08.951Z,11.00
2017-09-26T07:55:43.395Z,13.40
2017-09-26T07:58:18.132Z,12.37
2017-09-26T08:00:54.085Z,13.53
2017-09-26T08:03:29.246Z,12.00
2017-09-26T08:06:04.670Z,11.63
2017-09-26T08:08:40.157Z,11.30
2017-09-26T08:11:14.660Z,11.30
2017-09-26T08:13:49.196Z,11.60
2017-09-26T08:16:23.751Z,11.93
2017-09-26T08:18:58.246Z,15.40
2017-09-26T08:21:33.659Z,12.00
2017-09-26T08:24:08.215Z,10.80
2017-09-26T08:26:42.797Z,12.80
2017-09-26T08:29:17.519Z,11.70
2017-09-26T08:31:52.039Z,12.10
2017-09-26T08:34:26.658Z,12.30
2017-09-26T08:37:01.226Z,11.40
2017-09-26T08:39:35.965Z,10.77
2017-09-26T08:42:10.703Z,11.10
2017-09-26T08:44:45.206Z,11.77
2017-09-26T08:47:19.734Z,11.03
2017-09-26T08:49:54.447Z,9.70
2017-09-26T08:52:28.978Z,12.50
2017-09-26T08:57:48.259Z,10.93
2017-09-26T09:00:22.886Z,11.70
2017-09-26T09:02:57.510Z,11.10
2017-09-26T09:05:32.864Z,11.00
2017-09-26T09:08:07.642Z,9.60
2017-09-26T09:10:42.114Z,9.73
2017-09-26T09:13:16.646Z,10.50
2017-09-26T09:15:51.155Z,8.97
2017-09-26T09:18:25.600Z,11.60
2017-09-26T09:21:00.106Z,11.07
2017-09-26T09:23:34.747Z,10.00
2017-09-26T09:26:09.429Z,10.90
2017-09-26T09:28:44.107Z,10.80
2017-09-26T09:31:18.805Z,12.00
2017-09-26T09:33:53.466Z,9.60
2017-09-26T09:36:28.090Z,9.13
2017-09-26T09:39:02.810Z,9.73
2017-09-26T09:41:37.464Z,9.07
2017-09-26T09:44:11.981Z,6.27
2017-09-26T09:46:46.503Z,6.30
2017-09-26T09:49:21.303Z,8.90
2017-09-26T09:51:55.922Z,8.20
2017-09-26T09:54:30.393Z,7.10
2017-09-26T09:57:04.882Z,7.33
2017-09-26T09:59:39.524Z,7.83
2017-09-26T10:02:14.056Z,7.90
2017-09-26T10:04:48.635Z,10.57
2017-09-26T10:07:23.200Z,7.67
2017-09-26T10:09:57.841Z,10.07
2017-09-26T10:12:32.354Z,7.40
2017-09-26T10:15:15.453Z,7.30
2017-09-26T10:17:50.855Z,7.20
2017-09-26T10:20:25.497Z,7.93
2017-09-26T10:23:00.132Z,8.77
2017-09-26T10:25:34.710Z,8.60
2017-09-26T10:28:09.189Z,9.70
2017-09-26T10:30:43.719Z,9.30
2017-09-26T10:33:18.290Z,6.63
2017-09-26T10:35:52.817Z,9.10
2017-09-26T10:38:27.321Z,7.60
2017-09-26T10:41:02.038Z,7.00
2017-09-26T10:43:36.838Z,8.00
2017-09-26T10:46:11.383Z,6.80
2017-09-26T10:48:46.081Z,5.90
2017-09-26T10:51:20.579Z,7.03
2017-09-26T10:53:55.176Z,7.10
2017-09-26T10:56:29.682Z,7.33
2017-09-26T10:59:04.187Z,7.80
2017-09-26T11:01:38.857Z,6.70
2017-09-26T11:04:13.455Z,6.37
2017-09-26T11:06:47.978Z,6.87
2017-09-26T11:09:22.702Z,7.00
2017-09-26T11:11:57.279Z,6.77
2017-09-26T11:14:31.822Z,6.80
2017-09-26T11:17:06.363Z,6.50
2017-09-26T11:19:40.849Z,4.83
2017-09-26T11:22:16.267Z,6.53
2017-09-26T11:24:50.805Z,7.90
2017-09-26T11:27:25.334Z,6.20
2017-09-26T11:29:59.898Z,5.30
2017-09-26T11:32:34.497Z,5.00
2017-09-26T11:35:11.125Z,4.83
2017-09-26T11:37:45.700Z,4.77
2017-09-26T11:40:20.241Z,6.70
2017-09-26T11:42:54.858Z,4.20
2017-09-26T11:45:29.689Z,4.67
2017-09-26T11:48:04.293Z,4.03
2017-09-26T11:50:38.833Z,4.80
2017-09-26T11:53:13.322Z,4.30
2017-09-26T11:55:47.811Z,4.50
2017-09-26T11:58:22.430Z,3.93
2017-09-26T12:00:56.863Z,4.63
2017-09-26T12:03:31.579Z,4.07
2017-09-26T12:06:06.109Z,4.10
2017-09-26T12:08:40.585Z,4.40
2017-09-26T12:11:15.199Z,4.70
2017-09-26T12:13:56.115Z,4.10
2017-09-26T12:16:30.533Z,3.50
2017-09-26T12:19:05.774Z,4.77
2017-09-26T12:21:39.959Z,3.80
2017-09-26T12:24:14.582Z,3.93
2017-09-26T12:26:49.147Z,4.30
2017-09-26T12:29:24.539Z,4.67
2017-09-26T12:31:59.141Z,4.60
2017-09-26T12:34:33.603Z,5.23
2017-09-26T12:37:09.752Z,4.90
2017-09-26T12:39:44.118Z,5.57
2017-09-26T12:42:18.600Z,5.00
2017-09-26T12:44:53.226Z,5.33
2017-09-26T12:47:27.787Z,6.80
2017-09-26T12:50:02.431Z,6.47
2017-09-26T12:52:37.031Z,6.57
2017-09-26T12:55:15.656Z,7.20
2017-09-26T12:57:50.157Z,7.30
2017-09-26T13:00:25.702Z,8.50
2017-09-26T13:03:00.382Z,8.90
2017-09-26T13:05:34.987Z,8.13
2017-09-26T13:08:09.721Z,6.70
2017-09-26T13:10:44.178Z,6.90
2017-09-26T13:13:18.647Z,5.27
2017-09-26T13:15:53.198Z,6.60
2017-09-26T13:18:27.491Z,6.37
2017-09-26T13:21:01.887Z,7.30
2017-09-26T13:23:36.422Z,7.90
2017-09-26T13:26:11.382Z,6.90
2017-09-26T13:28:46.076Z,6.63
2017-09-26T13:31:20.510Z,6.77
2017-09-26T13:33:55.202Z,6.97
2017-09-26T13:36:29.802Z,7.93
2017-09-26T13:39:03.358Z,7.10
2017-09-26T13:41:38.798Z,6.80
2017-09-26T13:44:13.350Z,6.33
2017-09-26T13:46:47.822Z,6.53
2017-09-26T13:49:22.379Z,6.87
2017-09-26T13:51:57.006Z,5.93
2017-09-26T13:54:31.674Z,5.80
2017-09-26T13:57:06.690Z,5.80
2017-09-26T13:59:41.238Z,5.40
2017-09-26T14:02:15.775Z,6.77
2017-09-26T14:04:50.397Z,7.30
2017-09-26T14:07:26.499Z,5.63
2017-09-26T14:10:00.944Z,6.60
2017-09-26T14:12:35.562Z,6.93
2017-09-26T14:15:15.740Z,6.50
2017-09-26T14:17:51.052Z,5.60
2017-09-26T14:20:25.555Z,6.23
2017-09-26T14:22:59.951Z,5.03
2017-09-26T14:25:34.502Z,6.27
2017-09-26T14:28:09.139Z,6.23
2017-09-26T14:30:43.686Z,6.93
2017-09-26T14:33:18.209Z,6.67
2017-09-26T14:35:52.755Z,5.87
2017-09-26T14:38:27.191Z,5.87
2017-09-26T14:41:01.694Z,6.67
2017-09-26T14:43:36.194Z,6.07
2017-09-26T14:46:10.750Z,6.10
2017-09-26T14:48:45.390Z,6.13
2017-09-26T14:51:19.989Z,10.50
2017-09-26T14:53:54.494Z,8.70
2017-09-26T14:56:29.330Z,7.27
2017-09-26T14:59:04.128Z,6.57
2017-09-26T15:01:38.554Z,5.70
2017-09-26T15:04:13.073Z,6.17
2017-09-26T15:06:47.776Z,6.43
2017-09-26T15:09:22.294Z,5.77
2017-09-26T15:11:56.818Z,6.47
2017-09-26T15:14:31.348Z,6.20
2017-09-26T15:17:06.065Z,4.97
2017-09-26T15:19:40.718Z,7.17
2017-09-26T15:22:15.334Z,8.40
2017-09-26T15:24:49.959Z,6.47
2017-09-26T15:27:24.534Z,6.87
2017-09-26T15:29:59.188Z,7.00
2017-09-26T15:32:33.811Z,5.60
2017-09-26T15:35:12.064Z,6.30
2017-09-26T15:37:46.525Z,6.47
2017-09-26T15:40:21.031Z,8.07
2017-09-26T15:42:56.466Z,8.50
2017-09-26T15:45:30.996Z,7.30
2017-09-26T15:48:05.550Z,7.30
2017-09-26T15:50:40.031Z,6.20
2017-09-26T15:53:14.741Z,6.17
2017-09-26T15:55:49.273Z,6.40
2017-09-26T15:58:23.928Z,6.63
2017-09-26T16:00:58.455Z,5.50
2017-09-26T16:03:33.002Z,5.83
2017-09-26T16:06:07.583Z,6.10
2017-09-26T16:08:42.211Z,7.20
2017-09-26T16:11:16.766Z,6.93
2017-09-26T16:13:51.269Z,6.87
2017-09-26T16:16:25.810Z,8.10
2017-09-26T16:19:00.332Z,7.40
2017-09-26T16:21:35.043Z,7.60
2017-09-26T16:24:09.644Z,7.47
2017-09-26T16:26:44.241Z,7.93
2017-09-26T16:29:18.907Z,7.17
2017-09-26T16:31:53.462Z,6.63
2017-09-26T16:34:28.163Z,8.30
2017-09-26T16:37:02.621Z,7.80
2017-09-26T16:39:37.255Z,8.40
2017-09-26T16:42:11.867Z,8.90
2017-09-26T16:44:46.535Z,9.40
2017-09-26T16:47:21.133Z,9.30
2017-09-26T16:49:55.642Z,9.93
2017-09-26T16:52:30.106Z,8.53
2017-09-26T16:55:05.830Z,11.17
2017-09-26T16:57:40.338Z,9.73
2017-09-26T17:00:14.908Z,10.57
2017-09-26T17:02:49.562Z,8.57
2017-09-26T17:05:24.090Z,9.43
2017-09-26T17:07:58.630Z,9.43
2017-09-26T17:10:33.255Z,12.50
2017-09-26T17:13:07.946Z,9.80
2017-09-26T17:15:42.488Z,8.03
2017-09-26T17:18:16.962Z,9.70
2017-09-26T17:20:51.531Z,11.73
2017-09-26T17:23:26.165Z,10.53
2017-09-26T17:26:00.681Z,10.63
2017-09-26T17:28:35.198Z,12.10
2017-09-26T17:31:10.006Z,11.20
2017-09-26T17:33:44.562Z,14.80
2017-09-26T17:36:18.867Z,12.30
2017-09-26T17:38:53.366Z,11.07
2017-09-26T17:41:28.091Z,8.57
2017-09-26T17:44:02.754Z,8.80
2017-09-26T17:46:37.375Z,10.30
2017-09-26T17:49:11.851Z,10.60
2017-09-26T17:51:46.342Z,9.90
2017-09-26T17:54:20.849Z,10.23
2017-09-26T17:56:55.526Z,10.33
2017-09-26T17:59:30.854Z,12.10
2017-09-26T18:02:05.604Z,10.17
2017-09-26T18:04:40.222Z,9.53
2017-09-26T18:07:14.814Z,9.80
2017-09-26T18:09:49.320Z,9.90
2017-09-26T18:12:23.801Z,9.57
2017-09-26T18:14:58.475Z,10.13
2017-09-26T18:17:33.039Z,10.77
2017-09-26T18:20:09.499Z,9.90
2017-09-26T18:22:44.170Z,9.60
2017-09-26T18:25:18.687Z,10.57
2017-09-26T18:27:53.949Z,10.70
2017-09-26T18:30:28.426Z,11.57
2017-09-26T18:33:03.066Z,11.03
2017-09-26T18:35:37.659Z,11.10
2017-09-26T18:38:12.333Z,11.17
2017-09-26T18:40:46.826Z,11.50
2017-09-26T18:43:21.475Z,10.43
2017-09-26T18:45:56.846Z,11.00
2017-09-26T18:48:31.289Z,11.30
2017-09-26T18:51:05.927Z,11.60
2017-09-26T18:53:40.452Z,10.00
2017-09-26T18:56:15.026Z,11.77
2017-09-26T18:58:50.446Z,11.43
2017-09-26T19:01:25.084Z,11.33
2017-09-26T19:03:59.674Z,11.73
2017-09-26T19:06:34.274Z,11.57
2017-09-26T19:09:08.764Z,12.57
2017-09-26T19:11:43.302Z,12.00
2017-09-26T19:14:17.765Z,11.33
2017-09-26T19:16:52.349Z,10.30
2017-09-26T19:19:26.786Z,11.40
2017-09-26T19:22:01.410Z,11.17
2017-09-26T19:24:35.854Z,12.70
2017-09-26T19:27:10.525Z,12.23
2017-09-26T19:29:45.010Z,12.50
2017-09-26T19:32:19.691Z,11.40
2017-09-26T19:34:54.290Z,12.03
2017-09-26T19:37:28.841Z,11.93
2017-09-26T19:40:07.662Z,10.87
2017-09-26T19:42:42.296Z,11.77
2017-09-26T19:45:16.821Z,11.40
2017-09-26T19:47:51.298Z,10.23
2017-09-26T19:50:25.923Z,12.23
2017-09-26T19:53:00.772Z,11.90
2017-09-26T19:55:36.139Z,12.10
2017-09-26T19:58:10.705Z,10.50
2017-09-26T20:00:45.227Z,10.93
2017-09-26T20:03:19.880Z,12.20
2017-09-26T20:05:54.488Z,10.83
2017-09-26T20:08:29.062Z,11.03
2017-09-26T20:11:03.674Z,10.03
2017-09-26T20:13:38.579Z,10.43
2017-09-26T20:16:13.283Z,10.00
2017-09-26T20:18:47.951Z,11.00
2017-09-26T20:21:22.598Z,9.80
2017-09-26T20:23:57.246Z,11.30
2017-09-26T20:26:31.802Z,11.60
2017-09-26T20:29:06.419Z,10.87
2017-09-26T20:31:41.020Z,11.10
2017-09-26T20:34:15.573Z,10.77
2017-09-26T20:36:50.890Z,11.37
2017-09-26T20:39:25.361Z,11.70
2017-09-26T20:41:59.886Z,11.20
2017-09-26T20:44:34.375Z,11.27
2017-09-26T20:47:09.337Z,12.30
2017-09-26T20:49:43.868Z,10.90
2017-09-26T20:52:18.423Z,12.53
2017-09-26T20:54:52.876Z,11.10
2017-09-26T20:57:27.346Z,10.10
2017-09-26T21:00:01.806Z,11.60
2017-09-26T21:02:36.492Z,10.80
2017-09-26T21:05:13.954Z,11.10
2017-09-26T21:07:48.582Z,11.73
2017-09-26T21:10:23.086Z,12.23
2017-09-26T21:12:57.579Z,11.57
2017-09-26T21:15:32.212Z,10.60
2017-09-26T21:18:07.053Z,11.17
2017-09-26T21:20:41.687Z,12.47
2017-09-26T21:23:16.318Z,11.30
2017-09-26T21:25:50.855Z,12.03
2017-09-26T21:28:25.564Z,10.13
2017-09-26T21:31:01.001Z,10.20
2017-09-26T21:33:36.364Z,11.30
2017-09-26T21:36:11.704Z,11.57
2017-09-26T21:38:46.242Z,11.97
2017-09-26T21:41:20.842Z,12.27
2017-09-26T21:43:55.531Z,12.03
2017-09-26T21:46:30.139Z,11.80
2017-09-26T21:49:04.786Z,11.47
2017-09-26T21:51:39.671Z,11.90
2017-09-26T21:54:14.365Z,11.87
2017-09-26T21:56:48.874Z,11.20
2017-09-26T21:59:23.442Z,12.50
2017-09-26T22:01:57.972Z,11.93
2017-09-26T22:04:32.694Z,11.67
2017-09-26T22:07:07.240Z,11.40
2017-09-26T22:09:41.727Z,11.37
2017-09-26T22:12:16.366Z,12.53
2017-09-26T22:14:51.065Z,11.77
2017-09-26T22:17:25.571Z,11.77
2017-09-26T22:20:00.227Z,12.17
2017-09-26T22:22:34.785Z,12.80
2017-09-26T22:25:14.567Z,12.47
2017-09-26T22:27:48.993Z,13.10
2017-09-26T22:30:33.944Z,14.57
2017-09-26T22:33:08.423Z,13.30
2017-09-26T22:35:43.217Z,13.87
2017-09-26T22:38:17.782Z,13.80
2017-09-26T22:40:52.270Z,12.90
2017-09-26T22:43:26.834Z,12.73
2017-09-26T22:46:01.387Z,12.63
2017-09-26T22:48:36.054Z,13.07
2017-09-26T22:51:10.626Z,14.03
2017-09-26T22:53:45.242Z,11.57
2017-09-26T22:56:19.822Z,13.40
2017-09-26T22:58:54.367Z,13.60
2017-09-26T23:01:28.969Z,12.77
2017-09-26T23:04:03.612Z,12.07
2017-09-26T23:06:38.111Z,11.00
2017-09-26T23:09:14.167Z,12.73
2017-09-26T23:11:48.783Z,12.93
2017-09-26T23:14:23.375Z,11.97
2017-09-26T23:16:57.834Z,12.87
2017-09-26T23:19:32.532Z,13.00
2017-09-26T23:22:07.094Z,12.03
2017-09-26T23:24:41.578Z,13.10
2017-09-26T23:27:16.113Z,10.97
2017-09-26T23:29:50.579Z,13.10
2017-09-26T23:32:25.250Z,13.30
2017-09-26T23:34:59.862Z,12.00
2017-09-26T23:37:34.354Z,12.10
2017-09-26T23:40:16.163Z,12.20
2017-09-26T23:42:50.736Z,13.13
2017-09-26T23:45:25.325Z,13.77
2017-09-26T23:47:59.856Z,11.93
2017-09-26T23:50:34.453Z,12.70
2017-09-26T23:53:09.555Z,13.20
2017-09-26T23:55:44.038Z,13.27
2017-09-26T23:58:19.361Z,13.53
